createdAt,value
2022-11-15T00:00:53.998Z,22.87
2022-11-15T00:03:23.532Z,22.27
2022-11-15T00:05:50.311Z,22.90
2022-11-15T00:08:17.137Z,21.90
2022-11-15T00:10:43.886Z,21.77
2022-11-15T00:13:13.438Z,24.10
2022-11-15T00:15:41.671Z,22.87
2022-11-15T00:18:14.084Z,22.83
2022-11-15T00:20:40.829Z,23.37
2022-11-15T00:23:07.806Z,23.53
2022-11-15T00:25:34.548Z,22.47
2022-11-15T00:28:01.399Z,22.37
2022-11-15T00:30:28.507Z,24.30
2022-11-15T00:32:55.503Z,23.03
2022-11-15T00:35:22.416Z,24.87
2022-11-15T00:37:48.903Z,21.37
2022-11-15T00:40:16.268Z,22.80
2022-11-15T00:42:43.065Z,24.67
2022-11-15T00:45:10.767Z,22.97
2022-11-15T00:47:37.201Z,22.37
2022-11-15T00:50:04.091Z,23.80
2022-11-15T00:52:30.598Z,19.53
2022-11-15T00:54:57.057Z,23.33
2022-11-15T00:57:23.601Z,23.87
2022-11-15T00:59:49.961Z,25.03
2022-11-15T01:02:16.376Z,23.00
2022-11-15T01:04:42.736Z,22.70
2022-11-15T01:07:09.226Z,23.43
2022-11-15T01:09:35.746Z,23.17
2022-11-15T01:12:02.167Z,24.00
2022-11-15T01:14:28.598Z,23.40
2022-11-15T01:16:55.058Z,21.80
2022-11-15T01:19:21.640Z,22.50
2022-11-15T01:21:50.802Z,26.03
2022-11-15T01:24:17.385Z,21.63
2022-11-15T01:26:43.752Z,23.33
2022-11-15T01:29:10.252Z,23.37
2022-11-15T01:31:36.645Z,22.53
2022-11-15T01:34:04.124Z,24.00
2022-11-15T01:36:30.518Z,20.93
2022-11-15T01:39:00.484Z,20.93
2022-11-15T01:41:30.364Z,23.00
2022-11-15T01:44:32.204Z,24.33
2022-11-15T01:47:01.838Z,24.83
2022-11-15T01:49:31.179Z,23.17
2022-11-15T01:51:58.404Z,22.63
2022-11-15T01:54:25.663Z,22.57
2022-11-15T01:56:57.636Z,22.60
2022-11-15T01:59:24.337Z,23.50
2022-11-15T02:01:51.461Z,24.53
2022-11-15T02:04:23.783Z,25.23
2022-11-15T02:06:50.499Z,24.33
2022-11-15T02:09:18.109Z,25.77
2022-11-15T02:11:45.945Z,22.97
2022-11-15T02:14:15.412Z,25.90
2022-11-15T02:17:26.696Z,27.00
2022-11-15T02:20:16.872Z,24.73
2022-11-15T02:23:06.525Z,26.17
2022-11-15T02:26:08.567Z,24.17
2022-11-15T02:29:09.804Z,28.00
2022-11-15T02:32:07.136Z,22.77
2022-11-15T02:34:46.521Z,24.43
2022-11-15T02:37:22.353Z,26.40
2022-11-15T02:39:57.661Z,24.57
2022-11-15T02:42:53.542Z,27.60
2022-11-15T02:45:34.553Z,28.87
2022-11-15T02:48:03.469Z,26.63
2022-11-15T02:50:32.763Z,26.07
2022-11-15T02:52:59.188Z,23.10
2022-11-15T02:55:42.303Z,27.23
2022-11-15T02:58:29.125Z,25.13
2022-11-15T03:01:07.343Z,26.83
2022-11-15T03:03:55.615Z,26.17
2022-11-15T03:06:28.125Z,26.87
2022-11-15T03:09:25.205Z,28.27
2022-11-15T03:12:00.353Z,29.90
2022-11-15T03:14:31.719Z,28.97
2022-11-15T03:17:10.827Z,30.33
2022-11-15T03:19:45.857Z,29.47
2022-11-15T03:22:17.613Z,29.07
2022-11-15T03:24:46.433Z,28.77
2022-11-15T03:27:18.254Z,30.20
2022-11-15T03:29:51.632Z,28.47
2022-11-15T03:32:26.127Z,29.50
2022-11-15T03:35:03.847Z,30.07
2022-11-15T03:37:47.547Z,28.80
2022-11-15T03:40:14.589Z,30.20
2022-11-15T03:42:49.695Z,28.00
2022-11-15T03:45:34.445Z,31.07
2022-11-15T03:48:09.828Z,31.17
2022-11-15T03:50:36.565Z,29.83
2022-11-15T03:53:03.497Z,34.10
2022-11-15T03:55:33.592Z,30.07
2022-11-15T03:58:01.877Z,30.73
2022-11-15T04:00:29.350Z,27.83
2022-11-15T04:02:55.975Z,28.40
2022-11-15T04:05:22.521Z,28.37
2022-11-15T04:07:48.954Z,28.80
2022-11-15T04:10:15.817Z,25.87
2022-11-15T04:12:47.240Z,30.53
2022-11-15T04:15:16.472Z,26.10
2022-11-15T04:17:45.794Z,28.83
2022-11-15T04:20:39.784Z,27.37
2022-11-15T04:23:44.493Z,26.17
2022-11-15T04:26:16.914Z,27.20
2022-11-15T04:29:01.703Z,26.73
2022-11-15T04:31:28.673Z,25.20
2022-11-15T04:33:56.390Z,29.43
2022-11-15T04:36:41.633Z,27.17
2022-11-15T04:39:08.302Z,25.97
2022-11-15T04:41:34.888Z,25.80
2022-11-15T04:44:01.388Z,25.40
2022-11-15T04:46:27.945Z,26.80
2022-11-15T04:48:58.576Z,25.60
2022-11-15T04:51:25.644Z,26.23
2022-11-15T04:53:52.067Z,23.80
2022-11-15T04:56:19.717Z,23.13
2022-11-15T04:58:46.112Z,23.93
2022-11-15T05:01:17.907Z,23.23
2022-11-15T05:04:04.246Z,23.80
2022-11-15T05:06:31.449Z,22.57
2022-11-15T05:08:57.991Z,23.63
2022-11-15T05:11:24.936Z,23.13
2022-11-15T05:13:51.474Z,22.10
2022-11-15T05:16:17.881Z,20.87
2022-11-15T05:18:44.422Z,20.57
2022-11-15T05:21:13.615Z,20.47
2022-11-15T05:23:40.909Z,19.87
2022-11-15T05:26:09.440Z,19.53
2022-11-15T05:28:37.535Z,18.03
2022-11-15T05:31:09.479Z,20.30
2022-11-15T05:33:40.580Z,17.73
2022-11-15T05:36:32.643Z,16.63
2022-11-15T05:38:59.167Z,15.20
2022-11-15T05:41:31.104Z,15.50
2022-11-15T05:43:58.382Z,14.90
2022-11-15T05:46:25.137Z,13.07
2022-11-15T05:48:53.470Z,13.03
2022-11-15T05:51:23.580Z,13.07
2022-11-15T05:53:52.111Z,11.30
2022-11-15T05:56:18.551Z,12.80
2022-11-15T05:58:45.150Z,12.80
2022-11-15T06:01:11.722Z,12.43
2022-11-15T06:03:38.151Z,12.27
2022-11-15T06:06:04.894Z,12.77
2022-11-15T06:08:31.340Z,11.33
2022-11-15T06:10:57.872Z,12.00
2022-11-15T06:13:24.398Z,11.60
2022-11-15T06:15:50.855Z,11.20
2022-11-15T06:18:17.290Z,10.97
2022-11-15T06:20:43.772Z,9.80
2022-11-15T06:23:10.247Z,10.83
2022-11-15T06:25:36.613Z,8.57
2022-11-15T06:28:03.139Z,10.43
2022-11-15T06:30:29.619Z,9.33
2022-11-15T06:33:01.010Z,9.13
2022-11-15T06:35:27.497Z,8.63
2022-11-15T06:37:54.038Z,8.60
2022-11-15T06:40:20.468Z,8.90
2022-11-15T06:42:46.904Z,9.07
2022-11-15T06:45:13.351Z,8.13
2022-11-15T06:47:47.589Z,8.93
2022-11-15T06:50:14.291Z,7.67
2022-11-15T06:52:40.741Z,8.13
2022-11-15T06:55:07.925Z,8.63
2022-11-15T06:57:34.459Z,9.00
2022-11-15T07:00:00.915Z,7.70
2022-11-15T07:02:27.293Z,7.87
2022-11-15T07:04:53.704Z,8.17
2022-11-15T07:07:20.208Z,7.40
2022-11-15T07:09:46.631Z,8.33
2022-11-15T07:12:13.062Z,7.63
2022-11-15T07:14:39.500Z,6.07
2022-11-15T07:17:06.089Z,7.73
2022-11-15T07:19:32.771Z,7.27
2022-11-15T07:21:59.322Z,7.27
2022-11-15T07:24:25.766Z,8.57
2022-11-15T07:26:52.401Z,9.03
2022-11-15T07:29:19.008Z,8.00
2022-11-15T07:31:45.431Z,8.57
2022-11-15T07:34:12.003Z,8.60
2022-11-15T07:36:38.445Z,8.30
2022-11-15T07:39:04.837Z,8.70
2022-11-15T07:41:31.389Z,8.17
2022-11-15T07:43:58.568Z,8.30
2022-11-15T07:46:29.078Z,8.10
2022-11-15T07:48:55.531Z,8.20
2022-11-15T07:51:21.928Z,7.27
2022-11-15T07:53:48.361Z,7.97
2022-11-15T07:56:14.777Z,7.10
2022-11-15T07:58:41.881Z,7.43
2022-11-15T08:01:10.575Z,7.97
2022-11-15T08:03:38.177Z,7.00
2022-11-15T08:06:04.984Z,7.17
2022-11-15T08:08:31.555Z,7.10
2022-11-15T08:11:01.562Z,6.87
2022-11-15T08:13:28.600Z,6.20
2022-11-15T08:16:02.803Z,7.27
2022-11-15T08:18:29.483Z,6.03
2022-11-15T08:21:00.833Z,6.87
2022-11-15T08:23:27.325Z,6.43
2022-11-15T08:25:53.770Z,5.93
2022-11-15T08:28:20.255Z,6.47
2022-11-15T08:30:46.672Z,5.70
2022-11-15T08:33:14.942Z,6.97
2022-11-15T08:35:42.224Z,8.13
2022-11-15T08:38:08.864Z,6.67
2022-11-15T08:40:36.246Z,6.47
2022-11-15T08:43:03.624Z,6.47
2022-11-15T08:45:31.453Z,6.97
2022-11-15T08:47:58.062Z,6.30
2022-11-15T08:50:24.552Z,7.17
2022-11-15T08:52:51.118Z,6.97
2022-11-15T08:55:17.942Z,7.90
2022-11-15T08:57:44.618Z,7.60
2022-11-15T09:00:12.774Z,7.60
2022-11-15T09:02:40.713Z,8.73
2022-11-15T09:05:08.446Z,9.10
2022-11-15T09:07:35.268Z,8.97
2022-11-15T09:10:01.819Z,8.03
2022-11-15T09:12:28.343Z,9.20
2022-11-15T09:14:54.921Z,10.67
2022-11-15T09:17:24.633Z,8.37
2022-11-15T09:19:51.810Z,8.87
2022-11-15T09:22:18.831Z,8.87
2022-11-15T09:24:45.364Z,8.60
2022-11-15T09:27:11.860Z,9.10
2022-11-15T09:29:38.265Z,9.53
2022-11-15T09:32:05.044Z,9.17
2022-11-15T09:34:31.427Z,8.73
2022-11-15T09:36:57.917Z,8.63
2022-11-15T09:39:24.414Z,8.07
2022-11-15T09:42:15.613Z,7.60
2022-11-15T09:45:00.635Z,7.87
2022-11-15T09:47:58.589Z,7.30
2022-11-15T09:50:35.326Z,6.63
2022-11-15T09:53:02.127Z,6.70
2022-11-15T09:55:36.999Z,6.67
2022-11-15T09:58:36.806Z,7.33
2022-11-15T10:01:09.071Z,5.07
2022-11-15T10:03:42.672Z,6.40
2022-11-15T10:06:13.824Z,6.70
2022-11-15T10:08:54.194Z,6.20
2022-11-15T10:11:40.430Z,5.87
2022-11-15T10:14:14.663Z,5.90
2022-11-15T10:17:10.587Z,5.93
2022-11-15T10:19:41.563Z,5.73
2022-11-15T10:22:23.394Z,6.23
2022-11-15T10:24:53.231Z,4.83
2022-11-15T10:27:20.730Z,4.60
2022-11-15T10:29:49.468Z,4.13
2022-11-15T10:32:19.004Z,4.07
2022-11-15T10:34:46.066Z,3.87
2022-11-15T10:37:12.530Z,3.40
2022-11-15T10:39:39.328Z,3.03
2022-11-15T10:42:19.263Z,3.30
2022-11-15T10:44:46.397Z,2.90
2022-11-15T10:47:38.867Z,2.77
2022-11-15T10:50:26.601Z,3.10
2022-11-15T10:52:53.390Z,3.03
2022-11-15T10:55:27.317Z,2.90
2022-11-15T10:57:56.674Z,2.07
2022-11-15T11:00:23.055Z,2.63
2022-11-15T11:03:02.987Z,2.07
2022-11-15T11:05:38.126Z,2.30
2022-11-15T11:08:14.013Z,2.40
2022-11-15T11:11:02.788Z,2.10
2022-11-15T11:13:36.049Z,2.63
2022-11-15T11:16:06.491Z,2.37
2022-11-15T11:18:56.438Z,2.17
2022-11-15T11:21:50.648Z,2.40
2022-11-15T11:24:28.719Z,1.77
2022-11-15T11:27:09.627Z,2.73
2022-11-15T11:29:54.128Z,2.30
2022-11-15T11:32:44.848Z,2.40
2022-11-15T11:35:21.321Z,1.90
2022-11-15T11:37:53.516Z,2.07
2022-11-15T11:40:35.939Z,1.87
2022-11-15T11:43:29.823Z,1.90
2022-11-15T11:46:18.760Z,1.67
2022-11-15T11:48:49.921Z,1.83
2022-11-15T11:51:21.961Z,2.10
2022-11-15T11:54:05.006Z,1.90
2022-11-15T11:56:36.371Z,1.90
2022-11-15T11:59:22.339Z,2.03
2022-11-15T12:01:48.903Z,1.60
2022-11-15T12:04:15.414Z,1.67
2022-11-15T12:06:52.911Z,1.53
2022-11-15T12:09:31.514Z,1.50
2022-11-15T12:12:36.867Z,1.97
2022-11-15T12:15:48.281Z,1.77
2022-11-15T12:18:17.322Z,2.73
2022-11-15T12:20:57.496Z,1.73
2022-11-15T12:23:32.017Z,2.07
2022-11-15T12:26:21.715Z,1.63
2022-11-15T12:29:07.807Z,1.60
2022-11-15T12:31:35.277Z,1.40
2022-11-15T12:34:07.598Z,1.30
2022-11-15T12:36:40.454Z,0.97
2022-11-15T12:39:11.735Z,1.80
2022-11-15T12:42:04.997Z,1.20
2022-11-15T12:44:31.506Z,1.37
2022-11-15T12:46:57.837Z,1.43
2022-11-15T12:49:24.197Z,1.43
2022-11-15T12:51:51.824Z,1.70
2022-11-15T12:54:24.402Z,1.63
2022-11-15T12:57:08.823Z,1.20
2022-11-15T13:00:05.205Z,1.03
2022-11-15T13:02:34.616Z,1.47
2022-11-15T13:05:16.044Z,1.40
2022-11-15T13:07:42.404Z,1.30
2022-11-15T13:10:28.108Z,1.03
2022-11-15T13:12:59.701Z,0.97
2022-11-15T13:15:38.214Z,1.00
2022-11-15T13:18:40.379Z,0.83
2022-11-15T13:21:40.360Z,1.00
2022-11-15T13:24:13.885Z,0.80
2022-11-15T13:26:41.070Z,1.20
2022-11-15T13:29:16.890Z,0.80
2022-11-15T13:31:44.816Z,0.90
2022-11-15T13:37:20.756Z,1.43
2022-11-15T13:39:48.988Z,1.20
2022-11-15T13:42:20.980Z,1.33
2022-11-15T13:44:57.848Z,1.17
2022-11-15T13:47:30.846Z,1.10
2022-11-15T13:50:02.209Z,1.40
2022-11-15T13:52:33.747Z,1.17
2022-11-15T13:55:05.677Z,1.30
2022-11-15T13:57:45.467Z,1.27
2022-11-15T14:00:35.828Z,0.87
2022-11-15T14:03:22.659Z,1.00
2022-11-15T14:06:04.503Z,1.00
2022-11-15T14:08:31.494Z,0.93
2022-11-15T14:11:10.180Z,1.10
2022-11-15T14:13:36.739Z,1.07
2022-11-15T14:16:17.560Z,1.20
2022-11-15T14:18:45.640Z,0.70
2022-11-15T14:21:12.413Z,0.93
2022-11-15T14:23:39.175Z,1.07
2022-11-15T14:26:11.409Z,0.80
2022-11-15T14:28:41.407Z,1.10
2022-11-15T14:31:13.985Z,1.00
2022-11-15T14:33:41.101Z,1.00
2022-11-15T14:36:13.649Z,1.13
2022-11-15T14:38:40.367Z,1.30
2022-11-15T14:41:18.386Z,0.63
2022-11-15T14:43:44.854Z,1.20
2022-11-15T14:46:11.338Z,0.73
2022-11-15T14:48:37.734Z,0.73
2022-11-15T14:51:04.199Z,0.70
2022-11-15T14:53:30.620Z,1.03
2022-11-15T14:55:59.131Z,1.20
2022-11-15T14:58:25.527Z,0.90
2022-11-15T15:00:51.984Z,0.93
2022-11-15T15:03:18.389Z,1.03
2022-11-15T15:05:45.538Z,1.33
2022-11-15T15:08:13.149Z,1.00
2022-11-15T15:10:43.423Z,0.80
2022-11-15T15:13:25.100Z,0.60
2022-11-15T15:15:52.852Z,0.80
2022-11-15T15:18:28.026Z,0.90
2022-11-15T15:20:58.334Z,1.10
2022-11-15T15:23:26.564Z,1.03
2022-11-15T15:25:53.752Z,0.70
2022-11-15T15:28:20.188Z,0.97
2022-11-15T15:30:46.697Z,1.20
2022-11-15T15:33:13.216Z,1.00
2022-11-15T15:35:39.640Z,0.93
2022-11-15T15:38:06.452Z,0.90
2022-11-15T15:40:34.193Z,1.00
2022-11-15T15:43:01.062Z,1.17
2022-11-15T15:45:28.681Z,0.80
2022-11-15T15:47:55.493Z,0.80
2022-11-15T15:50:34.166Z,1.47
2022-11-15T15:53:03.155Z,0.90
2022-11-15T15:55:29.909Z,1.13
2022-11-15T15:57:56.408Z,0.97
2022-11-15T16:00:25.610Z,1.10
2022-11-15T16:02:53.397Z,1.10
2022-11-15T16:05:19.974Z,1.40
2022-11-15T16:07:48.260Z,1.10
2022-11-15T16:10:33.062Z,0.87
2022-11-15T16:12:59.545Z,1.10
2022-11-15T16:15:30.012Z,1.40
2022-11-15T16:18:01.461Z,1.10
2022-11-15T16:20:34.599Z,1.67
2022-11-15T16:23:07.633Z,1.70
2022-11-15T16:25:43.040Z,1.50
2022-11-15T16:28:29.605Z,1.40
2022-11-15T16:31:02.296Z,1.20
2022-11-15T16:33:29.033Z,1.40
2022-11-15T16:35:55.453Z,1.00
2022-11-15T16:38:21.869Z,1.20
2022-11-15T16:40:49.432Z,1.30
2022-11-15T16:43:16.393Z,1.60
2022-11-15T16:45:44.215Z,1.30
2022-11-15T16:48:22.518Z,1.40
2022-11-15T16:50:49.126Z,1.60
2022-11-15T16:53:15.548Z,1.70
2022-11-15T16:55:42.120Z,1.37
2022-11-15T16:58:09.544Z,1.37
2022-11-15T17:00:36.067Z,1.60
2022-11-15T17:03:03.543Z,1.80
2022-11-15T17:05:30.032Z,1.57
2022-11-15T17:07:56.462Z,1.50
2022-11-15T17:10:24.535Z,1.50
2022-11-15T17:12:51.880Z,1.23
2022-11-15T17:15:19.113Z,1.53
2022-11-15T17:17:52.489Z,1.90
2022-11-15T17:20:20.126Z,1.97
2022-11-15T17:22:47.364Z,1.70
2022-11-15T17:25:14.611Z,1.83
2022-11-15T17:27:41.252Z,1.60
2022-11-15T17:30:08.663Z,1.73
2022-11-15T17:32:38.127Z,1.60
2022-11-15T17:35:11.988Z,1.87
2022-11-15T17:37:41.854Z,1.80
2022-11-15T17:40:08.785Z,2.07
2022-11-15T17:42:35.157Z,1.80
2022-11-15T17:45:05.302Z,1.90
2022-11-15T17:47:35.792Z,1.93
2022-11-15T17:50:02.330Z,2.10
2022-11-15T17:52:29.844Z,2.17
2022-11-15T17:54:56.230Z,1.93
2022-11-15T17:57:22.676Z,2.00
2022-11-15T17:59:49.146Z,2.37
2022-11-15T18:02:15.624Z,2.23
2022-11-15T18:04:42.115Z,2.50
2022-11-15T18:07:08.599Z,2.50
2022-11-15T18:09:35.087Z,2.40
2022-11-15T18:12:01.653Z,2.33
2022-11-15T18:14:28.198Z,2.30
2022-11-15T18:16:55.077Z,2.70
2022-11-15T18:19:21.603Z,2.77
2022-11-15T18:21:57.296Z,2.30
2022-11-15T18:24:29.315Z,2.80
2022-11-15T18:26:56.962Z,2.80
2022-11-15T18:29:26.838Z,2.80
2022-11-15T18:31:55.772Z,2.93
2022-11-15T18:34:31.990Z,3.50
2022-11-15T18:36:59.009Z,3.40
2022-11-15T18:39:25.532Z,3.30
2022-11-15T18:41:52.317Z,3.60
2022-11-15T18:44:19.143Z,3.50
2022-11-15T18:46:45.628Z,3.30
2022-11-15T18:49:14.158Z,2.73
2022-11-15T18:51:44.030Z,2.77
2022-11-15T18:54:13.390Z,3.37
2022-11-15T18:56:40.242Z,3.00
2022-11-15T18:59:08.282Z,3.27
2022-11-15T19:01:37.039Z,3.50
2022-11-15T19:04:12.306Z,3.37
2022-11-15T19:06:44.008Z,3.50
2022-11-15T19:09:12.768Z,4.10
2022-11-15T19:11:40.017Z,3.03
2022-11-15T19:14:11.956Z,3.23
2022-11-15T19:16:40.882Z,4.03
2022-11-15T19:19:11.668Z,4.27
2022-11-15T19:21:38.340Z,3.53
2022-11-15T19:24:05.509Z,4.27
2022-11-15T19:26:32.387Z,4.37
2022-11-15T19:29:01.600Z,3.80
2022-11-15T19:31:30.181Z,4.17
2022-11-15T19:33:59.386Z,4.43
2022-11-15T19:36:28.811Z,4.43
2022-11-15T19:38:56.396Z,4.73
2022-11-15T19:41:24.511Z,5.17
2022-11-15T19:43:52.339Z,5.03
2022-11-15T19:46:21.911Z,4.80
2022-11-15T19:48:49.349Z,4.83
2022-11-15T19:51:23.614Z,5.20
2022-11-15T19:53:53.088Z,6.30
2022-11-15T19:56:20.537Z,5.30
2022-11-15T19:58:52.076Z,5.27
2022-11-15T20:01:18.595Z,5.93
2022-11-15T20:03:46.738Z,6.03
2022-11-15T20:06:16.598Z,6.43
2022-11-15T20:08:44.260Z,5.67
2022-11-15T20:11:12.641Z,5.40
2022-11-15T20:13:39.423Z,6.87
2022-11-15T20:16:06.252Z,6.30
2022-11-15T20:18:34.617Z,7.73
2022-11-15T20:21:02.723Z,6.53
2022-11-15T20:23:29.103Z,7.30
2022-11-15T20:25:55.724Z,7.20
2022-11-15T20:28:27.049Z,7.27
2022-11-15T20:30:58.758Z,7.77
2022-11-15T20:33:26.024Z,7.10
2022-11-15T20:35:53.569Z,6.57
2022-11-15T20:38:21.272Z,7.67
2022-11-15T20:40:56.039Z,6.83
2022-11-15T20:43:25.616Z,7.17
2022-11-15T20:45:51.994Z,8.00
2022-11-15T20:48:18.554Z,7.47
2022-11-15T20:50:47.017Z,7.90
2022-11-15T20:53:15.833Z,7.90
2022-11-15T20:55:46.198Z,7.33
2022-11-15T20:58:12.614Z,7.90
2022-11-15T21:00:39.057Z,7.73
2022-11-15T21:03:06.918Z,7.47
2022-11-15T21:05:40.903Z,7.97
2022-11-15T21:08:08.229Z,8.13
2022-11-15T21:10:53.545Z,8.70
2022-11-15T21:13:20.213Z,7.27
2022-11-15T21:15:47.109Z,8.67
2022-11-15T21:18:14.900Z,7.87
2022-11-15T21:20:41.576Z,8.47
2022-11-15T21:23:08.555Z,9.17
2022-11-15T21:25:34.966Z,8.67
2022-11-15T21:28:01.469Z,8.17
2022-11-15T21:30:28.134Z,7.57
2022-11-15T21:32:54.633Z,7.57
2022-11-15T21:35:21.219Z,9.37
2022-11-15T21:37:51.842Z,9.00
2022-11-15T21:40:21.563Z,8.63
2022-11-15T21:42:48.107Z,8.93
2022-11-15T21:45:14.579Z,8.80
2022-11-15T21:47:45.727Z,8.23
2022-11-15T21:50:15.934Z,9.63
2022-11-15T21:52:42.432Z,9.27
2022-11-15T21:55:09.485Z,8.83
2022-11-15T21:57:35.866Z,8.57
2022-11-15T22:00:21.038Z,10.20
2022-11-15T22:02:47.600Z,8.37
2022-11-15T22:05:14.097Z,9.30
2022-11-15T22:07:40.735Z,10.00
2022-11-15T22:10:07.493Z,10.00
2022-11-15T22:12:33.969Z,9.47
2022-11-15T22:15:00.421Z,9.40
2022-11-15T22:17:46.801Z,9.83
2022-11-15T22:20:37.811Z,9.90
2022-11-15T22:23:01.594Z,9.60
2022-11-15T22:25:28.041Z,8.83
2022-11-15T22:27:54.693Z,9.27
2022-11-15T22:30:25.518Z,10.70
2022-11-15T22:32:51.896Z,11.37
2022-11-15T22:35:18.403Z,10.53
2022-11-15T22:37:44.821Z,10.00
2022-11-15T22:40:11.332Z,11.40
2022-11-15T22:42:37.777Z,10.00
2022-11-15T22:45:04.602Z,10.67
2022-11-15T22:47:31.019Z,10.30
2022-11-15T22:49:57.781Z,10.90
2022-11-15T22:52:24.226Z,10.80
2022-11-15T22:54:50.610Z,11.20
2022-11-15T22:57:17.098Z,11.90
2022-11-15T22:59:43.555Z,11.70
2022-11-15T23:02:09.944Z,11.43
2022-11-15T23:04:36.396Z,11.40
2022-11-15T23:07:02.859Z,10.60
2022-11-15T23:09:29.288Z,12.37
2022-11-15T23:12:14.415Z,11.60
2022-11-15T23:14:40.896Z,11.93
2022-11-15T23:17:07.385Z,12.80
2022-11-15T23:19:33.805Z,11.57
2022-11-15T23:25:02.600Z,10.60
2022-11-15T23:27:28.971Z,10.93
2022-11-15T23:30:14.162Z,11.17
2022-11-15T23:32:58.878Z,10.90
2022-11-15T23:35:25.586Z,11.60
2022-11-15T23:37:51.946Z,10.77
2022-11-15T23:40:18.459Z,11.13
2022-11-15T23:42:44.870Z,10.43
2022-11-15T23:45:11.496Z,10.63
2022-11-15T23:47:37.871Z,10.00
2022-11-15T23:50:06.415Z,10.07
2022-11-15T23:52:32.792Z,9.57
2022-11-15T23:54:59.418Z,9.30
2022-11-15T23:57:25.908Z,10.77
2022-11-15T23:59:52.482Z,8.97
